Time;durP1;ratioP1;P1;durP2;ratioP2;P2;SDS_P1;SDS_P2;PMS_P1;PMS_P2;Temp;Humidity;BMP_temperature;BMP_pressure;BME280_temperature;BME280_humidity;BME280_pressure;Samples;Min_cycle;Max_cycle;Signal;HPM_P1;HPM_P2
2023/01/04 00:01:13;;;;;;;2.70;1.70;;;;;;;4.06;100.00;100257.84;1644755;85;21554;-67
2023/01/04 00:03:40;;;;;;;3.85;2.25;;;;;;;4.02;100.00;100257.45;1639016;85;21569;-64
2023/01/04 00:06:08;;;;;;;1.85;1.65;;;;;;;4.01;100.00;100268.30;1646935;85;21609;-64
2023/01/04 00:08:36;;;;;;;1.90;1.67;;;;;;;4.01;100.00;100267.41;1622328;86;21431;-64
2023/01/04 00:11:05;;;;;;;2.15;1.60;;;;;;;3.98;100.00;100271.36;1647154;85;21827;-64
2023/01/04 00:13:32;;;;;;;2.80;2.02;;;;;;;3.90;100.00;100269.66;1645078;85;21614;-64
2023/01/04 00:15:59;;;;;;;1.90;1.70;;;;;;;3.87;100.00;100270.97;1640416;85;21464;-65
2023/01/04 00:18:27;;;;;;;2.42;1.87;;;;;;;3.83;100.00;100274.91;1603267;86;21038;-64
2023/01/04 00:20:54;;;;;;;3.43;1.90;;;;;;;3.80;100.00;100279.66;1602541;85;21062;-64
2023/01/04 00:23:21;;;;;;;1.98;1.50;;;;;;;3.78;100.00;100283.16;1645222;85;21835;-65
2023/01/04 00:25:47;;;;;;;2.95;1.62;;;;;;;3.77;100.00;100276.21;1644881;85;21609;-65
2023/01/04 00:28:15;;;;;;;2.85;1.90;;;;;;;3.74;100.00;100275.80;1645894;85;21010;-65
2023/01/04 00:30:43;;;;;;;1.75;1.60;;;;;;;3.74;100.00;100273.20;1645558;85;21503;-65
2023/01/04 00:33:09;;;;;;;2.55;2.35;;;;;;;3.75;100.00;100276.66;1645413;85;21565;-65
2023/01/04 00:35:36;;;;;;;2.00;1.80;;;;;;;3.74;100.00;100284.05;1638417;85;21981;-65
2023/01/04 00:38:05;;;;;;;2.20;1.70;;;;;;;3.71;100.00;100275.80;1644243;85;21612;-66
2023/01/04 00:40:31;;;;;;;2.12;1.27;;;;;;;3.68;100.00;100278.44;1644442;85;21464;-64
2023/01/04 00:42:58;;;;;;;1.50;1.40;;;;;;;3.59;100.00;100275.43;1598832;85;21606;-65
2023/01/04 00:45:24;;;;;;;3.72;1.80;;;;;;;3.59;100.00;100275.88;1644396;85;21570;-64
2023/01/04 00:47:51;;;;;;;1.65;1.30;;;;;;;3.55;100.00;100277.63;1642453;85;21837;-64
2023/01/04 00:50:17;;;;;;;1.50;1.40;;;;;;;3.56;100.00;100271.98;1642200;85;21609;-65
2023/01/04 00:52:44;;;;;;;1.37;1.12;;;;;;;3.55;100.00;100274.16;1645989;85;21515;-65
2023/01/04 00:55:11;;;;;;;2.60;1.70;;;;;;;3.56;100.00;100269.38;1640063;85;21633;-65
2023/01/04 00:57:37;;;;;;;2.67;1.57;;;;;;;3.51;100.00;100274.61;1643900;85;21644;-65
2023/01/04 01:00:05;;;;;;;1.85;1.50;;;;;;;3.50;100.00;100271.56;1645381;85;21546;-65
2023/01/04 01:02:32;;;;;;;1.67;1.52;;;;;;;3.51;100.00;100278.06;1645185;85;21436;-65
2023/01/04 01:04:59;;;;;;;2.05;1.60;;;;;;;3.49;100.00;100275.05;1639045;85;21253;-65
2023/01/04 01:07:25;;;;;;;1.30;1.20;;;;;;;3.47;100.00;100272.45;1642390;85;21558;-66
2023/01/04 01:09:52;;;;;;;2.15;1.52;;;;;;;3.47;100.00;100273.75;1641209;85;21531;-66
2023/01/04 01:12:19;;;;;;;2.08;1.22;;;;;;;3.48;100.00;100268.11;1646460;85;21903;-64
2023/01/04 01:14:46;;;;;;;1.70;1.10;;;;;;;3.46;100.00;100268.55;1640940;85;21439;-63
2023/01/04 01:17:13;;;;;;;2.77;1.70;;;;;;;3.44;100.00;100262.50;1646519;85;21532;-63
2023/01/04 01:19:40;;;;;;;1.35;1.25;;;;;;;3.37;100.00;100259.08;1645581;85;21535;-64
2023/01/04 01:22:06;;;;;;;1.10;1.05;;;;;;;3.38;100.00;100256.89;1647201;85;21550;-63
2023/01/04 01:24:35;;;;;;;2.50;1.47;;;;;;;3.36;100.00;100253.87;1641198;85;21423;-63
2023/01/04 01:27:01;;;;;;;1.20;1.10;;;;;;;3.35;100.00;100259.93;1643390;85;21069;-64
2023/01/04 01:29:28;;;;;;;3.40;1.10;;;;;;;3.35;100.00;100258.63;1645192;85;21510;-63
2023/01/04 01:31:55;;;;;;;1.45;1.20;;;;;;;3.30;100.00;100257.36;1646197;85;21461;-63
2023/01/04 01:34:21;;;;;;;1.27;1.10;;;;;;;3.23;100.00;100263.44;1647697;85;21552;-62
2023/01/04 01:36:48;;;;;;;2.87;1.37;;;;;;;3.23;100.00;100268.20;1639350;85;21817;-63
2023/01/04 01:39:14;;;;;;;1.80;1.40;;;;;;;3.23;100.00;100260.84;1643402;85;21514;-63
2023/01/04 01:41:41;;;;;;;1.10;1.05;;;;;;;3.18;100.00;100263.87;1605257;87;21560;-63
2023/01/04 01:44:46;;;;;;;1.95;1.30;;;;;;;3.19;100.00;100258.69;1644613;85;21487;-63
2023/01/04 01:47:19;;;;;;;1.45;1.12;;;;;;;3.17;100.00;100268.66;1644656;85;21578;-63
2023/01/04 01:49:46;;;;;;;1.60;1.10;;;;;;;3.18;100.00;100262.58;1645967;85;21827;-63
2023/01/04 01:52:32;;;;;;;1.20;0.93;;;;;;;3.19;100.00;100269.52;1639241;85;21507;-63
2023/01/04 01:55:02;;;;;;;1.37;1.05;;;;;;;3.19;100.00;100263.03;1645833;85;21407;-63
2023/01/04 01:57:31;;;;;;;1.57;1.10;;;;;;;3.18;100.00;100261.28;1645707;85;21475;-63
2023/01/04 02:00:00;;;;;;;1.30;0.90;;;;;;;3.20;100.00;100260.84;1643539;85;21487;-63
2023/01/04 02:02:28;;;;;;;1.15;1.05;;;;;;;3.17;100.00;100260.42;1640949;85;21488;-62
2023/01/04 02:04:55;;;;;;;3.42;1.10;;;;;;;3.18;100.00;100263.44;1645126;85;21613;-62
2023/01/04 02:07:24;;;;;;;1.70;1.10;;;;;;;3.17;100.00;100264.77;1645193;85;21546;-63
2023/01/04 02:09:51;;;;;;;1.65;1.17;;;;;;;3.16;100.00;100263.87;1620110;86;21527;-64
2023/01/04 02:12:17;;;;;;;1.95;0.88;;;;;;;3.15;100.00;100263.91;1614826;85;21522;-62
2023/01/04 02:14:46;;;;;;;1.30;1.20;;;;;;;3.15;100.00;100266.06;1644953;85;22017;-63
2023/01/04 02:17:22;;;;;;;2.17;0.90;;;;;;;3.12;100.00;100259.56;1645620;85;21034;-63
2023/01/04 02:20:43;;;;;;;1.32;1.15;;;;;;;3.18;100.00;100264.73;1644744;85;21503;-62
2023/01/04 02:23:41;;;;;;;2.22;1.32;;;;;;;3.20;100.00;100260.84;1646260;85;21609;-63
2023/01/04 02:27:08;;;;;;;1.12;1.00;;;;;;;3.15;100.00;100265.20;1641177;85;21543;-62
2023/01/04 02:29:46;;;;;;;2.00;1.42;;;;;;;3.07;100.00;100258.29;1613130;87;21810;-63
2023/01/04 02:32:30;;;;;;;2.65;1.70;;;;;;;3.02;100.00;100256.12;1605900;87;21651;-63
2023/01/04 02:35:38;;;;;;;1.60;1.30;;;;;;;3.05;100.00;100267.83;1619079;86;21003;-62
2023/01/04 02:38:22;;;;;;;2.10;1.85;;;;;;;3.05;100.00;100266.52;1632438;86;21538;-63
2023/01/04 02:41:06;;;;;;;1.85;1.40;;;;;;;2.99;100.00;100263.92;1626147;86;21503;-63
2023/01/04 02:46:54;;;;;;;1.30;1.20;;;;;;;2.93;100.00;100269.98;1598936;86;21440;-66
2023/01/04 02:52:07;;;;;;;1.80;1.37;;;;;;;2.90;100.00;100261.33;1629078;86;21625;-62
2023/01/04 02:54:34;;;;;;;2.33;1.40;;;;;;;2.92;100.00;100262.22;1632320;86;21529;-63
2023/01/04 02:57:25;;;;;;;2.70;1.57;;;;;;;2.90;100.00;100256.14;1623993;86;21621;-62
2023/01/04 03:00:15;;;;;;;1.67;1.57;;;;;;;2.85;100.00;100257.91;1630972;86;21059;-66
2023/01/04 03:06:24;;;;;;;1.37;1.17;;;;;;;2.86;100.00;100257.91;1631478;86;21503;-64
2023/01/04 03:09:19;;;;;;;2.27;1.17;;;;;;;2.91;100.00;100253.55;1624661;86;21455;-67
2023/01/04 03:14:41;;;;;;;1.67;1.27;;;;;;;2.88;100.00;100254.87;1631779;86;21450;-64
2023/01/04 03:17:12;;;;;;;2.30;1.47;;;;;;;2.81;100.00;100257.48;1633442;86;21502;-64
2023/01/04 03:19:50;;;;;;;2.12;1.55;;;;;;;2.82;100.00;100263.94;1628930;86;21470;-64
2023/01/04 03:36:52;;;;;;;1.65;1.27;;;;;;;2.75;100.00;100257.05;1644212;85;21471;-66
2023/01/04 03:48:47;;;;;;;1.50;1.35;;;;;;;2.68;100.00;100268.30;1644623;85;21574;-64
2023/01/04 03:51:30;;;;;;;2.80;1.52;;;;;;;2.65;100.00;100265.25;1646570;85;21518;-63
2023/01/04 03:54:09;;;;;;;1.87;1.70;;;;;;;2.66;100.00;100267.00;1646506;85;21820;-64
2023/01/04 03:56:37;;;;;;;1.77;1.65;;;;;;;2.60;100.00;100264.42;1640305;85;21599;-64
2023/01/04 03:59:04;;;;;;;2.52;1.70;;;;;;;2.62;100.00;100267.87;1645685;85;21514;-64
2023/01/04 04:01:30;;;;;;;2.03;1.47;;;;;;;2.55;100.00;100259.66;1621416;86;21514;-64
2023/01/04 04:09:28;;;;;;;2.20;1.80;;;;;;;2.53;100.00;100268.73;1645545;85;21467;-64
2023/01/04 04:11:55;;;;;;;2.37;1.80;;;;;;;2.49;100.00;100267.45;1646438;85;21459;-64
2023/01/04 04:14:21;;;;;;;3.00;2.17;;;;;;;2.50;100.00;100266.56;1645602;85;22404;-65
2023/01/04 04:16:48;;;;;;;2.67;1.90;;;;;;;2.48;100.00;100265.70;1639570;85;21664;-65
2023/01/04 04:19:15;;;;;;;2.10;1.65;;;;;;;2.52;100.00;100273.51;1646529;85;21843;-64
2023/01/04 04:21:41;;;;;;;3.35;1.90;;;;;;;2.50;100.00;100271.31;1645573;85;21577;-64
2023/01/04 04:24:17;;;;;;;2.30;1.75;;;;;;;2.52;100.00;100272.21;1645398;85;21546;-65
2023/01/04 04:26:44;;;;;;;1.62;1.40;;;;;;;2.50;100.00;100263.52;1645613;85;21567;-64
2023/01/04 04:29:10;;;;;;;2.92;1.85;;;;;;;2.46;100.00;100264.39;1646826;85;21586;-64
2023/01/04 04:31:37;;;;;;;2.10;1.63;;;;;;;2.48;100.00;100270.89;1643006;85;21826;-64
2023/01/04 04:34:04;;;;;;;2.75;1.80;;;;;;;2.48;100.00;100260.51;1645363;85;21606;-64
2023/01/04 04:36:31;;;;;;;1.92;1.57;;;;;;;2.51;100.00;100260.52;1642971;85;21641;-63
2023/01/04 04:38:58;;;;;;;2.35;1.70;;;;;;;2.49;100.00;100269.60;1644099;85;21502;-63
2023/01/04 04:41:40;;;;;;;1.80;1.70;;;;;;;2.47;100.00;100262.69;1639595;85;21636;-64
2023/01/04 04:44:13;;;;;;;3.12;2.15;;;;;;;2.46;100.00;100267.44;1642919;85;21824;-67
2023/01/04 04:46:41;;;;;;;3.00;2.00;;;;;;;2.43;100.00;100273.91;1637672;85;21527;-65
2023/01/04 04:49:08;;;;;;;2.55;2.17;;;;;;;2.41;100.00;100273.05;1645651;85;21530;-63
2023/01/04 04:51:37;;;;;;;2.02;1.82;;;;;;;2.43;100.00;100272.61;1642161;85;21019;-62
2023/01/04 04:54:06;;;;;;;2.52;1.72;;;;;;;2.44;100.00;100270.47;1637495;85;21527;-63
2023/01/04 04:56:32;;;;;;;1.72;1.60;;;;;;;2.40;100.00;100273.93;1641461;85;21801;-63
2023/01/04 04:58:59;;;;;;;1.98;1.77;;;;;;;2.43;100.00;100273.91;1638477;85;21528;-62
2023/01/04 05:01:25;;;;;;;4.33;2.00;;;;;;;2.44;100.00;100267.43;1641174;85;21515;-63
2023/01/04 05:03:52;;;;;;;2.87;1.95;;;;;;;2.36;100.00;100273.50;1644577;85;21561;-62
2023/01/04 05:06:19;;;;;;;2.70;1.87;;;;;;;2.38;100.00;100276.95;1646982;85;21668;-62
2023/01/04 05:08:46;;;;;;;2.58;1.70;;;;;;;2.41;100.00;100279.53;1643906;85;21726;-65
2023/01/04 05:11:13;;;;;;;1.72;1.62;;;;;;;2.37;100.00;100277.81;1641879;85;21589;-63
2023/01/04 05:13:40;;;;;;;1.83;1.73;;;;;;;2.38;100.00;100275.22;1640733;85;21507;-64
2023/01/04 05:16:07;;;;;;;3.70;1.60;;;;;;;2.31;100.00;100282.12;1644266;85;21492;-64
2023/01/04 05:18:34;;;;;;;1.90;1.67;;;;;;;2.34;100.00;100278.24;1645550;85;21431;-64
2023/01/04 05:21:01;;;;;;;2.67;1.45;;;;;;;2.39;100.00;100283.42;1642489;85;21820;-65
2023/01/04 05:23:29;;;;;;;3.45;1.90;;;;;;;2.45;100.00;100289.05;1643013;85;21582;-65
2023/01/04 05:25:58;;;;;;;2.20;1.72;;;;;;;2.45;100.00;100285.16;1646183;85;21693;-65
2023/01/04 05:28:25;;;;;;;2.20;2.00;;;;;;;2.47;100.00;100281.72;1642148;85;21724;-65
2023/01/04 05:30:54;;;;;;;3.90;1.70;;;;;;;2.48;100.00;100297.70;1643342;85;21578;-65
2023/01/04 05:33:28;;;;;;;1.75;1.50;;;;;;;2.51;100.00;100303.36;1645281;85;21757;-65
2023/01/04 05:35:58;;;;;;;2.12;1.75;;;;;;;2.54;100.00;100299.44;1662377;84;21640;-65
2023/01/04 05:38:25;;;;;;;3.05;2.40;;;;;;;2.59;100.00;100307.25;1654606;84;21487;-65
2023/01/04 05:44:36;;;;;;;2.52;2.10;;;;;;;2.58;100.00;100309.40;1735059;78;21506;-65
2023/01/04 05:47:02;;;;;;;2.12;1.65;;;;;;;2.60;100.00;100302.47;1737832;80;21718;-65
2023/01/04 05:49:29;;;;;;;1.47;1.37;;;;;;;2.68;100.00;100304.66;1739551;80;21506;-66
2023/01/04 05:51:55;;;;;;;2.37;1.70;;;;;;;2.75;100.00;100305.50;1739196;80;21521;-65
2023/01/04 05:54:22;;;;;;;2.08;1.80;;;;;;;2.81;100.00;100306.38;1742489;80;21482;-65
2023/01/04 05:56:49;;;;;;;2.67;1.90;;;;;;;2.86;100.00;100310.27;1746241;80;21503;-66
2023/01/04 05:59:16;;;;;;;2.35;1.85;;;;;;;2.88;100.00;100307.23;1740963;80;21524;-65
2023/01/04 06:01:42;;;;;;;3.17;2.50;;;;;;;2.89;100.00;100306.38;1738025;81;21510;-65
2023/01/04 06:04:09;;;;;;;1.98;1.77;;;;;;;2.93;100.00;100307.66;1755799;80;21600;-64
2023/01/04 06:06:36;;;;;;;3.80;1.75;;;;;;;3.02;100.00;100311.98;1747897;80;21510;-64
2023/01/04 06:09:03;;;;;;;2.52;2.02;;;;;;;3.07;100.00;100313.27;1736379;80;21537;-64
2023/01/04 06:11:29;;;;;;;2.72;1.67;;;;;;;3.10;100.00;100311.53;1740402;80;21679;-65
2023/01/04 06:13:58;;;;;;;2.60;1.70;;;;;;;3.09;100.00;100312.86;1726927;80;21518;-61
2023/01/04 06:16:24;;;;;;;2.30;1.85;;;;;;;3.15;100.00;100315.44;1745879;80;21576;-60
2023/01/04 06:18:51;;;;;;;6.92;2.20;;;;;;;3.14;100.00;100321.48;1732188;81;21439;-61
2023/01/04 06:21:17;;;;;;;1.92;1.50;;;;;;;3.16;100.00;100314.55;1742790;80;21577;-61
2023/01/04 06:23:44;;;;;;;2.42;2.22;;;;;;;3.17;100.00;100312.84;1744941;78;21820;-60
2023/01/04 06:26:10;;;;;;;1.70;1.60;;;;;;;3.17;100.00;100318.04;1733417;80;21562;-60
2023/01/04 06:28:37;;;;;;;2.45;1.80;;;;;;;3.16;100.00;100317.59;1734103;80;21515;-60
2023/01/04 06:31:05;;;;;;;3.05;1.92;;;;;;;3.21;100.00;100318.46;1742361;80;21526;-60
2023/01/04 06:33:32;;;;;;;;;;;;;;;3.24;100.00;100316.72;1736909;80;21671;-60
2023/01/04 06:35:59;;;;;;;2.92;2.12;;;;;;;3.16;100.00;100330.59;1745079;80;21803;-62
2023/01/04 06:38:26;;;;;;;4.78;2.65;;;;;;;3.21;100.00;100318.02;1748448;79;21533;-60
2023/01/04 06:40:54;;;;;;;2.87;2.47;;;;;;;3.21;100.00;100325.81;1738525;80;21427;-61
2023/01/04 06:43:20;;;;;;;3.25;2.45;;;;;;;3.20;100.00;100329.30;1748805;80;21521;-61
2023/01/04 06:45:47;;;;;;;2.87;1.72;;;;;;;3.10;100.00;100327.12;1744550;80;21526;-60
2023/01/04 06:48:13;;;;;;;2.35;1.80;;;;;;;3.16;100.00;100330.59;1741259;80;21821;-62
2023/01/04 06:50:41;;;;;;;1.70;1.60;;;;;;;3.19;100.00;100330.59;1735481;80;21585;-62
2023/01/04 06:53:08;;;;;;;2.12;1.90;;;;;;;3.21;100.00;100327.55;1748450;80;21073;-62
2023/01/04 06:55:34;;;;;;;2.25;2.05;;;;;;;3.22;100.00;100334.47;1745342;80;21550;-61
2023/01/04 06:58:01;;;;;;;1.77;1.65;;;;;;;3.30;100.00;100339.23;1742869;81;21416;-61
2023/01/04 07:00:28;;;;;;;1.73;1.63;;;;;;;3.31;100.00;100327.55;1736036;80;21862;-61
2023/01/04 07:02:55;;;;;;;2.35;2.15;;;;;;;3.39;100.00;100327.52;1730123;81;21660;-62
2023/01/04 07:05:21;;;;;;;2.62;1.85;;;;;;;3.41;100.00;100327.08;1736958;81;21561;-60
2023/01/04 07:07:48;;;;;;;3.05;2.17;;;;;;;3.43;100.00;100321.44;1744713;80;21589;-62
2023/01/04 07:10:15;;;;;;;3.35;1.95;;;;;;;3.39;100.00;100327.93;1732947;80;21549;-64
2023/01/04 07:12:42;;;;;;;1.95;1.80;;;;;;;3.43;100.00;100332.28;1731961;80;21752;-62
2023/01/04 07:15:10;;;;;;;2.90;1.98;;;;;;;3.44;100.00;100323.16;1735949;81;21018;-62
2023/01/04 07:17:38;;;;;;;4.15;1.90;;;;;;;3.46;100.00;100330.95;1729342;80;25939;-61
2023/01/04 07:20:06;;;;;;;2.53;2.10;;;;;;;3.37;100.00;100331.86;1730545;81;21518;-61
2023/01/04 07:22:34;;;;;;;2.72;1.70;;;;;;;3.45;100.00;100327.49;1732757;80;21083;-62
2023/01/04 07:25:01;;;;;;;2.15;1.70;;;;;;;3.55;100.00;100337.88;1732150;80;21826;-62
2023/01/04 07:27:27;;;;;;;1.92;1.55;;;;;;;3.63;100.00;100340.00;1741752;81;21494;-62
2023/01/04 07:29:54;;;;;;;3.10;2.08;;;;;;;3.68;100.00;100338.26;1739000;81;21396;-62
2023/01/04 07:32:20;;;;;;;2.85;2.08;;;;;;;3.65;100.00;100342.16;1734757;81;21546;-62
2023/01/04 07:34:47;;;;;;;1.80;1.40;;;;;;;3.73;100.00;100346.92;1726758;81;21573;-62
2023/01/04 07:37:15;;;;;;;3.17;1.70;;;;;;;3.82;100.00;100343.40;1743466;80;21466;-62
2023/01/04 07:39:42;;;;;;;4.60;2.22;;;;;;;3.84;100.00;100337.75;1744071;80;21124;-61
2023/01/04 07:42:10;;;;;;;3.08;1.70;;;;;;;3.80;100.00;100348.59;1728882;80;21034;-62
2023/01/04 07:44:37;;;;;;;1.90;1.70;;;;;;;3.85;100.00;100347.30;1725544;81;21672;-62
2023/01/04 07:47:04;;;;;;;2.35;1.77;;;;;;;3.81;100.00;100352.09;1737842;81;21506;-62
2023/01/04 07:49:30;;;;;;;2.25;1.70;;;;;;;3.87;100.00;100352.91;1729567;81;21416;-62
2023/01/04 07:51:57;;;;;;;2.58;1.90;;;;;;;3.92;100.00;100352.02;1721443;81;21620;-60
2023/01/04 07:54:24;;;;;;;2.10;2.00;;;;;;;3.85;100.00;100350.76;1732025;81;21427;-60
2023/01/04 07:56:50;;;;;;;2.12;1.92;;;;;;;3.92;100.00;100341.62;1730314;82;21581;-60
2023/01/04 07:59:18;;;;;;;2.20;2.00;;;;;;;3.93;100.00;100345.96;1724018;80;21496;-60
2023/01/04 08:01:45;;;;;;;1.77;1.67;;;;;;;3.92;100.00;100346.41;1713912;81;21806;-60
2023/01/04 08:04:13;;;;;;;4.20;1.70;;;;;;;4.03;100.00;100359.34;1710865;82;21585;-61
2023/01/04 08:06:40;;;;;;;4.62;2.08;;;;;;;3.94;100.00;100352.87;1732103;82;21559;-60
2023/01/04 08:09:06;;;;;;;2.62;2.42;;;;;;;3.97;100.00;100360.23;1735373;79;21511;-60
2023/01/04 08:11:34;;;;;;;2.20;2.00;;;;;;;4.01;100.00;100357.19;1732017;81;21451;-60
2023/01/04 08:14:01;;;;;;;3.00;2.30;;;;;;;4.06;100.00;100360.64;1714578;81;21836;-61
2023/01/04 08:16:33;;;;;;;3.75;2.10;;;;;;;4.04;100.00;100351.54;1717331;80;21487;-62
2023/01/04 08:19:02;;;;;;;4.75;2.70;;;;;;;4.13;100.00;100361.50;1724784;81;21554;-62
2023/01/04 08:21:30;;;;;;;2.35;1.85;;;;;;;4.21;100.00;100357.96;1714497;81;21621;-61
2023/01/04 08:23:56;;;;;;;4.37;2.30;;;;;;;4.29;100.00;100363.13;1723084;80;23441;-63
2023/01/04 08:26:24;;;;;;;;;;;;;;;4.23;100.00;100362.72;1719986;82;21427;-62
2023/01/04 08:28:51;;;;;;;3.52;1.92;;;;;;;4.10;100.00;100358.45;1720145;82;20432;-62
2023/01/04 08:31:21;;;;;;;2.05;1.85;;;;;;;4.26;100.00;100361.41;1723809;80;20991;-61
2023/01/04 08:33:47;;;;;;;2.22;1.80;;;;;;;4.35;100.00;100362.22;1716212;82;21554;-62
2023/01/04 08:36:24;;;;;;;1.95;1.82;;;;;;;4.36;100.00;100366.56;1722310;82;21633;-62
2023/01/04 08:38:53;;;;;;;3.25;1.77;;;;;;;4.32;100.00;100362.26;1713075;81;21830;-63
2023/01/04 08:41:21;;;;;;;4.08;1.80;;;;;;;4.34;100.00;100366.57;1730044;81;21495;-65
2023/01/04 08:43:48;;;;;;;2.60;1.85;;;;;;;4.31;100.00;100376.99;1732817;80;21092;-63
2023/01/04 08:46:14;;;;;;;2.95;1.77;;;;;;;4.39;100.00;100370.44;1732064;80;21621;-62
2023/01/04 08:48:41;;;;;;;2.60;1.70;;;;;;;4.45;100.00;100364.77;1733794;80;21692;-63
2023/01/04 08:51:11;;;;;;;2.95;1.85;;;;;;;4.54;100.00;100360.36;1739145;80;21502;-63
2023/01/04 08:53:38;;;;;;;2.00;1.80;;;;;;;4.61;100.00;100355.55;1735726;80;22167;-62
2023/01/04 08:56:07;;;;;;;2.72;2.02;;;;;;;4.62;100.00;100358.14;1726049;80;21435;-63
2023/01/04 08:58:35;;;;;;;3.62;2.27;;;;;;;4.67;100.00;100360.70;1735307;80;20966;-63
2023/01/04 09:01:03;;;;;;;;;;;;;;;4.55;100.00;100358.20;1734396;80;21466;-64
2023/01/04 09:03:31;;;;;;;2.83;2.37;;;;;;;4.59;100.00;100365.97;1734027;81;21828;-63
2023/01/04 09:06:12;;;;;;;1.98;1.82;;;;;;;4.63;100.00;100356.39;1734341;80;21505;-63
2023/01/04 09:08:40;;;;;;;3.22;1.87;;;;;;;4.74;100.00;100361.09;1726591;81;21002;-63
2023/01/04 09:11:14;;;;;;;2.40;1.75;;;;;;;4.76;100.00;100348.06;1726441;80;21546;-64
2023/01/04 09:13:41;;;;;;;2.58;1.98;;;;;;;4.77;100.00;100359.78;1726326;82;21561;-63
2023/01/04 09:16:11;;;;;;;2.98;1.85;;;;;;;4.82;100.00;100359.31;1729739;80;21887;-64
2023/01/04 09:18:37;;;;;;;3.35;2.10;;;;;;;4.86;100.00;100353.64;1735280;80;21116;-62
2023/01/04 09:21:10;;;;;;;3.42;1.87;;;;;;;4.88;100.00;100354.05;1720876;82;21488;-64
2023/01/04 09:23:36;;;;;;;2.87;2.20;;;;;;;4.89;100.00;100353.59;1736130;80;21594;-63
2023/01/04 09:26:17;;;;;;;4.35;2.27;;;;;;;4.90;100.00;100359.25;1729645;80;27196;-63
2023/01/04 09:28:44;;;;;;;2.98;2.17;;;;;;;4.77;100.00;100371.50;1731578;80;22146;-62
2023/01/04 09:31:17;;;;;;;2.72;1.82;;;;;;;4.84;100.00;100365.79;1730678;80;21424;-62
2023/01/04 09:33:44;;;;;;;1.98;1.67;;;;;;;4.85;100.00;100355.36;1724643;80;21671;-65
2023/01/04 09:36:13;;;;;;;2.45;1.50;;;;;;;4.91;100.00;100358.36;1741002;80;21483;-60
2023/01/04 09:38:40;;;;;;;3.27;2.08;;;;;;;4.96;100.00;100348.77;1732580;80;21546;-59
2023/01/04 09:41:25;;;;;;;1.72;1.60;;;;;;;5.00;100.00;100347.00;1721408;80;21772;-61
2023/01/04 09:43:55;;;;;;;3.10;1.70;;;;;;;4.96;100.00;100337.03;1729549;80;21491;-61
2023/01/04 09:46:51;;;;;;;2.90;1.92;;;;;;;4.99;100.00;100346.14;1715688;80;21577;-61
2023/01/04 09:49:26;;;;;;;3.42;2.10;;;;;;;5.00;100.00;100336.58;1718483;80;21614;-62
2023/01/04 09:52:01;;;;;;;1.67;1.47;;;;;;;5.00;100.00;100326.15;1718394;82;21546;-62
2023/01/04 09:54:34;;;;;;;1.98;1.80;;;;;;;5.05;100.00;100323.92;1723751;80;21805;-62
2023/01/04 09:57:01;;;;;;;3.58;1.65;;;;;;;4.99;100.00;100321.38;1716106;80;21618;-62
2023/01/04 09:59:31;;;;;;;2.05;1.60;;;;;;;5.07;100.00;100324.77;1712643;81;21027;-62
2023/01/04 10:02:12;;;;;;;2.17;1.42;;;;;;;5.18;100.00;100313.36;1715064;80;21775;-62
2023/01/04 10:04:49;;;;;;;2.90;2.15;;;;;;;5.27;100.00;100317.18;1725598;80;21475;-64
2023/01/04 10:07:22;;;;;;;;;;;;;;;5.33;100.00;100311.92;1720077;80;22276;-62
2023/01/04 10:09:49;;;;;;;1.82;1.50;;;;;;;5.39;100.00;100314.46;1716816;80;20489;-62
2023/01/04 10:12:31;;;;;;;2.30;1.90;;;;;;;5.44;100.00;100315.70;1722175;80;21543;-61
2023/01/04 10:15:20;;;;;;;2.72;1.70;;;;;;;5.53;100.00;100305.61;1714877;80;21597;-62
2023/01/04 10:18:23;;;;;;;1.87;1.25;;;;;;;5.44;100.00;100308.76;1728189;80;21570;-61
2023/01/04 10:21:16;;;;;;;2.15;1.60;;;;;;;5.55;100.00;100314.28;1724767;80;21805;-62
2023/01/04 10:24:06;;;;;;;2.62;1.70;;;;;;;5.50;100.00;100293.48;1726772;80;21526;-61
2023/01/04 10:26:41;;;;;;;2.47;1.57;;;;;;;5.54;100.00;100299.50;1713785;80;21518;-61
2023/01/04 10:29:39;;;;;;;2.42;1.50;;;;;;;5.55;100.00;100294.27;1713379;80;21105;-61
2023/01/04 10:32:30;;;;;;;2.00;1.80;;;;;;;5.56;100.00;100296.46;1722397;80;21574;-68
2023/01/04 10:34:57;;;;;;;2.12;1.72;;;;;;;5.55;100.00;100289.05;1718116;80;21938;-62
2023/01/04 10:37:27;;;;;;;1.55;1.27;;;;;;;5.58;100.00;100294.69;1718775;81;21538;-61
2023/01/04 10:39:54;;;;;;;1.45;1.30;;;;;;;5.62;100.00;100288.55;1720993;80;21018;-63
2023/01/04 10:42:38;;;;;;;1.45;1.20;;;;;;;5.68;100.00;100295.44;1727628;80;21505;-62
2023/01/04 10:45:32;;;;;;;1.70;1.35;;;;;;;5.65;100.00;100285.88;1736132;80;21415;-64
2023/01/04 10:48:07;;;;;;;2.70;1.10;;;;;;;5.69;100.00;100298.03;1740028;80;21774;-63
2023/01/04 10:50:57;;;;;;;1.92;1.25;;;;;;;5.68;100.00;100298.91;1738724;80;21455;-63
2023/01/04 10:53:46;;;;;;;1.30;1.20;;;;;;;5.65;100.00;100298.92;1738341;81;21580;-62
2023/01/04 10:56:35;;;;;;;5.00;1.77;;;;;;;5.65;100.00;100306.75;1737167;80;21586;-62
2023/01/04 10:59:19;;;;;;;1.90;1.20;;;;;;;5.54;100.00;100306.91;1734894;80;21589;-62
2023/01/04 11:01:57;;;;;;;2.08;1.45;;;;;;;5.51;100.00;100303.02;1735779;80;21942;-59
2023/01/04 11:04:30;;;;;;;;;;;;;;;5.47;100.00;100302.64;1747896;80;21025;-60
2023/01/04 11:07:08;;;;;;;1.37;1.20;;;;;;;5.41;100.00;100294.89;1742638;79;20454;-60
2023/01/04 11:10:01;;;;;;;1.62;1.37;;;;;;;5.44;100.00;100306.57;1740165;80;21632;-60
2023/01/04 11:12:28;;;;;;;1.37;1.25;;;;;;;5.41;100.00;100303.56;1741616;80;21564;-60
2023/01/04 11:14:56;;;;;;;2.77;1.25;;;;;;;5.46;100.00;100303.08;1748358;80;21081;-60
2023/01/04 11:17:27;;;;;;;1.40;1.30;;;;;;;5.52;100.00;100303.88;1741202;80;21652;-65
2023/01/04 11:19:55;;;;;;;2.72;1.35;;;;;;;5.56;100.00;100296.46;1738376;80;21600;-63
2023/01/04 11:22:42;;;;;;;1.35;1.20;;;;;;;5.59;100.00;100294.65;1735504;80;21502;-64
2023/01/04 11:25:17;;;;;;;1.95;1.20;;;;;;;5.60;100.00;100297.69;1741433;80;21068;-64
2023/01/04 11:27:59;;;;;;;2.12;1.72;;;;;;;5.61;100.00;100293.33;1733671;80;21923;-66
2023/01/04 11:30:52;;;;;;;2.42;1.55;;;;;;;5.63;100.00;100293.75;1738085;80;21637;-63
2023/01/04 11:33:22;;;;;;;3.40;2.27;;;;;;;5.69;100.00;100295.42;1717544;81;21018;-64
2023/01/04 11:35:55;;;;;;;3.33;2.00;;;;;;;5.74;100.00;100288.37;1684581;81;21518;-64
2023/01/04 11:38:26;;;;;;;2.95;2.40;;;;;;;5.78;100.00;100297.92;1706512;81;21567;-63
2023/01/04 11:41:04;;;;;;;3.58;2.12;;;;;;;5.76;100.00;100293.59;1701384;81;21826;-63
2023/01/04 11:43:33;;;;;;;;;;;;;;;5.77;100.00;100292.72;1701240;81;20974;-62
2023/01/04 11:46:26;;;;;;;3.75;1.80;;;;;;;5.80;100.00;100302.68;1717272;81;20422;-63
2023/01/04 11:48:55;;;;;;;4.37;1.92;;;;;;;5.83;100.00;100294.79;1706017;81;21537;-62
2023/01/04 11:51:32;;;;;;;4.53;2.30;;;;;;;5.90;100.00;100301.26;1707554;81;21001;-62
2023/01/04 11:54:16;;;;;;;5.97;2.15;;;;;;;5.92;100.00;100295.57;1706507;81;22004;-59
2023/01/04 14:04:02;;;;;;;2.27;1.87;;;;;;;2.92;100.00;100325.86;1785728;78;23323;-68
2023/01/04 14:06:43;;;;;;;2.87;1.95;;;;;;;3.27;100.00;100334.03;1764421;80;21053;-67
2023/01/04 14:09:17;;;;;;;2.60;1.95;;;;;;;3.41;100.00;100318.39;1765681;80;21889;-69
2023/01/04 14:12:00;;;;;;;3.42;2.47;;;;;;;3.52;100.00;100319.23;1750518;79;21510;-67
2023/01/04 14:14:47;;;;;;;2.83;2.33;;;;;;;3.59;100.00;100322.69;1766834;80;21462;-69
2023/01/04 14:17:39;;;;;;;3.15;2.87;;;;;;;3.65;100.00;100319.61;1769991;79;21620;-68
2023/01/04 14:20:24;;;;;;;3.62;2.27;;;;;;;3.72;100.00;100326.11;1755243;80;21423;-67
2023/01/04 14:22:57;;;;;;;2.50;2.30;;;;;;;3.75;100.00;100320.88;1754755;80;21914;-67
2023/01/04 14:25:43;;;;;;;2.87;2.05;;;;;;;3.77;100.00;100321.32;1766761;80;21553;-68
2023/01/04 14:28:27;;;;;;;2.05;1.80;;;;;;;3.77;100.00;100308.73;1760472;80;21545;-68
2023/01/04 14:31:06;;;;;;;2.27;2.00;;;;;;;3.79;100.00;100316.97;1768189;80;21434;-67
2023/01/04 14:33:39;;;;;;;3.72;1.87;;;;;;;3.82;100.00;100311.73;1767619;79;21554;-67
2023/01/04 14:36:20;;;;;;;2.12;1.70;;;;;;;3.78;100.00;100304.83;1757457;80;21854;-65
2023/01/04 14:39:40;;;;;;;2.42;1.62;;;;;;;3.78;100.00;100303.97;1745152;78;21167;-63
2023/01/04 14:42:25;;;;;;;2.05;1.50;;;;;;;3.78;100.00;100300.06;1718613;82;21768;-63